Time;durP1;ratioP1;P1;durP2;ratioP2;P2;SDS_P1;SDS_P2;PMS_P1;PMS_P2;Temp;Humidity;BMP_temperature;BMP_pressure;BME280_temperature;BME280_humidity;BME280_pressure;Samples;Min_cycle;Max_cycle;Signal;HPM_P1;HPM_P2
2024/01/23 04:01:21;;;;;;;26.67;4.78;;;6.70;99.90;;;;;;6211060;22;20039;-81
2024/01/23 04:03:47;;;;;;;28.75;4.43;;;6.70;99.90;;;;;;6219573;23;20008;-81
2024/01/23 04:06:12;;;;;;;26.83;4.82;;;6.70;99.90;;;;;;6219505;23;20078;-79
2024/01/23 04:08:38;;;;;;;30.77;4.25;;;6.80;99.90;;;;;;6246349;23;20434;-82
2024/01/23 04:11:04;;;;;;;31.25;5.03;;;6.80;99.90;;;;;;6246131;23;20012;-81
2024/01/23 04:13:29;;;;;;;25.50;2.70;;;6.80;99.90;;;;;;6247024;23;20008;-81
2024/01/23 04:15:56;;;;;;;23.30;4.10;;;6.80;99.90;;;;;;6251814;23;20079;-81
2024/01/23 04:18:22;;;;;;;23.27;3.38;;;6.80;99.90;;;;;;6223848;23;20027;-80
2024/01/23 04:20:47;;;;;;;25.23;4.05;;;6.80;99.90;;;;;;6219288;23;20024;-82
2024/01/23 04:23:13;;;;;;;29.70;4.10;;;6.80;99.90;;;;;;6219337;23;20020;-81
2024/01/23 04:25:38;;;;;;;22.10;4.47;;;6.70;99.90;;;;;;6219362;23;20020;-80
2024/01/23 04:28:04;;;;;;;29.55;4.07;;;6.80;99.90;;;;;;6219340;23;20126;-81
2024/01/23 04:30:30;;;;;;;22.35;3.17;;;6.80;99.90;;;;;;6219061;22;20044;-80
2024/01/23 04:32:55;;;;;;;27.58;4.63;;;6.80;99.90;;;;;;6219437;23;20480;-81
2024/01/23 04:35:22;;;;;;;28.63;3.67;;;6.80;99.90;;;;;;6246008;23;20465;-81
2024/01/23 04:37:47;;;;;;;19.15;2.90;;;6.80;99.90;;;;;;6246478;23;20020;-81
2024/01/23 04:40:14;;;;;;;22.08;3.65;;;6.80;99.90;;;;;;6246394;22;20017;-79
2024/01/23 04:42:40;;;;;;;17.77;4.10;;;6.80;99.90;;;;;;6219367;23;20012;-81
2024/01/23 04:45:08;;;;;;;27.42;4.57;;;6.80;99.90;;;;;;6246159;23;20015;-80
2024/01/23 04:47:34;;;;;;;26.45;4.32;;;6.80;99.90;;;;;;6219158;23;20016;-81
2024/01/23 04:50:01;;;;;;;25.55;4.25;;;6.80;99.90;;;;;;6219157;23;20441;-81
2024/01/23 04:52:26;;;;;;;27.02;3.92;;;6.80;99.90;;;;;;6219304;23;20445;-82
2024/01/23 04:54:52;;;;;;;30.35;4.13;;;6.80;99.90;;;;;;6246302;23;20086;-80
2024/01/23 04:57:18;;;;;;;39.35;3.55;;;6.80;99.90;;;;;;6219072;23;20446;-81
2024/01/23 04:59:44;;;;;;;27.15;4.57;;;6.80;99.90;;;;;;6195289;23;20016;-81
2024/01/23 05:02:10;;;;;;;22.98;3.88;;;6.90;99.90;;;;;;6245852;22;20315;-81
2024/01/23 05:04:36;;;;;;;21.02;3.95;;;6.80;99.90;;;;;;6246102;23;20008;-80
2024/01/23 05:07:01;;;;;;;33.03;4.70;;;6.80;99.90;;;;;;6246414;23;20016;-83
2024/01/23 05:09:31;;;;;;;28.83;4.38;;;6.80;99.90;;;;;;6219374;23;20016;-81
2024/01/23 05:11:57;;;;;;;25.98;4.80;;;6.80;99.90;;;;;;6219458;23;20018;-80
2024/01/23 05:14:23;;;;;;;27.77;4.13;;;6.90;99.90;;;;;;6246225;23;20446;-80
2024/01/23 05:16:48;;;;;;;35.92;4.32;;;6.90;99.90;;;;;;6219478;23;20012;-80
2024/01/23 05:19:14;;;;;;;28.80;3.80;;;6.90;99.90;;;;;;6246677;23;20015;-81
2024/01/23 05:21:40;;;;;;;16.52;2.67;;;6.90;99.90;;;;;;6219462;23;20016;-79
2024/01/23 05:24:06;;;;;;;30.20;4.65;;;6.90;99.90;;;;;;6246065;23;20090;-81
2024/01/23 05:26:31;;;;;;;28.27;4.13;;;6.90;99.90;;;;;;6218977;23;20016;-80
2024/01/23 05:28:57;;;;;;;27.38;4.00;;;6.90;99.90;;;;;;6219293;23;20012;-81
2024/01/23 05:31:23;;;;;;;22.85;4.45;;;6.90;99.90;;;;;;6246240;22;20087;-78
2024/01/23 05:33:48;;;;;;;29.98;4.38;;;6.90;99.90;;;;;;6219622;23;20036;-77
2024/01/23 05:36:14;;;;;;;27.05;4.22;;;6.90;99.90;;;;;;6246528;23;20016;-81
2024/01/23 05:38:40;;;;;;;28.60;4.22;;;6.90;99.90;;;;;;6219460;23;20469;-81
2024/01/23 05:41:05;;;;;;;29.50;5.15;;;6.90;99.90;;;;;;6246380;22;20039;-81
2024/01/23 05:43:31;;;;;;;24.83;4.22;;;6.90;99.90;;;;;;6219697;23;20341;-81
2024/01/23 05:45:57;;;;;;;29.17;5.20;;;6.90;99.90;;;;;;6246807;23;20040;-82
2024/01/23 05:48:22;;;;;;;29.60;3.80;;;6.90;99.90;;;;;;6248433;23;20020;-81
2024/01/23 05:50:48;;;;;;;37.47;5.05;;;6.90;99.90;;;;;;6248019;22;20016;-81
2024/01/23 05:53:13;;;;;;;23.88;4.85;;;6.90;99.90;;;;;;6220896;23;20019;-82
2024/01/23 05:55:39;;;;;;;28.90;4.38;;;6.90;99.90;;;;;;6248293;23;20004;-81
2024/01/23 05:58:05;;;;;;;35.67;5.78;;;6.90;99.90;;;;;;6221833;23;20368;-81
2024/01/23 06:00:31;;;;;;;30.02;5.30;;;6.90;99.90;;;;;;6220579;22;20090;-83
2024/01/23 06:02:58;;;;;;;26.67;4.15;;;6.90;99.90;;;;;;6248217;23;20483;-80
2024/01/23 06:05:24;;;;;;;25.08;4.25;;;6.90;99.90;;;;;;6221102;23;20012;-82
2024/01/23 06:07:50;;;;;;;34.00;4.50;;;6.90;99.90;;;;;;6221283;23;20019;-82
2024/01/23 06:10:16;;;;;;;26.00;4.15;;;6.80;99.90;;;;;;6248333;22;20425;-82
2024/01/23 06:12:42;;;;;;;27.40;4.13;;;6.80;99.90;;;;;;6221067;23;20012;-81
2024/01/23 06:15:09;;;;;;;26.63;5.13;;;6.80;99.90;;;;;;6248201;23;20004;-82
2024/01/23 06:17:34;;;;;;;34.80;4.78;;;6.80;99.90;;;;;;6248018;23;20025;-82
2024/01/23 06:20:03;;;;;;;32.05;4.13;;;6.80;99.90;;;;;;6220894;23;20338;-82
2024/01/23 06:22:29;;;;;;;29.63;5.13;;;6.70;99.90;;;;;;6247798;22;20326;-81
2024/01/23 06:25:11;;;;;;;35.42;4.65;;;6.70;99.90;;;;;;6220791;23;20438;-81
2024/01/23 06:27:36;;;;;;;28.40;4.43;;;6.70;99.90;;;;;;6220764;23;20020;-80
2024/01/23 06:30:02;;;;;;;36.35;5.47;;;6.70;99.90;;;;;;6247618;23;20413;-82
2024/01/23 06:32:28;;;;;;;31.73;4.38;;;6.60;99.90;;;;;;6195896;23;20004;-81
2024/01/23 06:34:54;;;;;;;23.15;3.60;;;6.60;99.90;;;;;;6221091;23;20014;-81
2024/01/23 06:37:20;;;;;;;32.95;5.72;;;6.50;99.90;;;;;;6195405;23;20095;-82
2024/01/23 06:39:47;;;;;;;28.88;4.53;;;6.50;99.90;;;;;;6247510;23;20023;-81
2024/01/23 06:42:13;;;;;;;37.92;5.40;;;6.40;99.90;;;;;;6220963;23;20016;-83
2024/01/23 06:44:39;;;;;;;26.38;4.03;;;6.40;99.90;;;;;;6247489;23;20008;-84
2024/01/23 06:47:05;;;;;;;21.40;4.68;;;6.40;99.90;;;;;;6220776;23;20046;-82
2024/01/23 06:49:31;;;;;;;41.20;6.25;;;6.30;99.90;;;;;;6220370;23;20016;-83
2024/01/23 06:51:56;;;;;;;35.30;4.30;;;6.30;99.90;;;;;;6220074;23;20128;-83
2024/01/23 06:54:23;;;;;;;38.63;4.78;;;6.30;99.90;;;;;;6247544;23;20008;-82
2024/01/23 06:56:49;;;;;;;38.22;4.65;;;6.30;99.90;;;;;;6220543;23;20345;-81
2024/01/23 06:59:15;;;;;;;31.67;5.53;;;6.20;99.90;;;;;;6220089;23;20008;-82
2024/01/23 07:01:41;;;;;;;36.63;5.50;;;6.10;99.90;;;;;;6246951;22;20377;-83
2024/01/23 07:04:07;;;;;;;34.20;5.15;;;6.10;99.90;;;;;;6247285;23;20019;-82
2024/01/23 07:06:33;;;;;;;44.03;5.72;;;6.10;99.90;;;;;;6220076;23;20047;-83
2024/01/23 07:08:59;;;;;;;28.30;4.13;;;6.00;99.90;;;;;;6219881;23;20019;-83
2024/01/23 07:11:25;;;;;;;34.97;5.35;;;6.00;99.90;;;;;;6219802;23;20012;-82
2024/01/23 07:13:51;;;;;;;31.88;4.32;;;5.90;99.90;;;;;;6219933;23;20069;-81
2024/01/23 07:16:17;;;;;;;32.13;4.75;;;5.90;99.90;;;;;;6220731;23;20109;-83
2024/01/23 07:18:43;;;;;;;37.40;5.63;;;5.90;99.90;;;;;;6220071;23;20016;-78
2024/01/23 07:21:09;;;;;;;32.05;4.93;;;5.90;99.90;;;;;;6248053;22;20014;-83
2024/01/23 07:23:36;;;;;;;32.05;4.93;;;5.80;99.90;;;;;;6219850;23;20027;-83
2024/01/23 07:26:02;;;;;;;87.63;6.00;;;5.80;99.90;;;;;;6246946;23;20008;-84
2024/01/23 07:28:28;;;;;;;34.83;5.32;;;5.80;99.90;;;;;;6220021;23;20016;-83
2024/01/23 07:30:54;;;;;;;22.75;4.22;;;5.80;99.90;;;;;;6220076;23;20027;-83
2024/01/23 07:33:20;;;;;;;34.80;5.30;;;5.80;99.90;;;;;;6246801;23;20008;-82
2024/01/23 07:35:46;;;;;;;40.28;5.15;;;5.70;99.90;;;;;;6247355;23;20012;-83
2024/01/23 07:38:12;;;;;;;35.45;4.35;;;5.70;99.90;;;;;;6219885;23;20035;-83
2024/01/23 07:40:38;;;;;;;33.50;4.63;;;5.70;99.90;;;;;;6246785;22;20427;-82
2024/01/23 07:43:04;;;;;;;31.40;5.30;;;5.70;99.90;;;;;;6247040;23;20066;-82
2024/01/23 07:45:29;;;;;;;26.98;4.80;;;5.70;99.90;;;;;;6219889;23;20429;-83
2024/01/23 07:47:55;;;;;;;35.40;5.60;;;5.70;99.90;;;;;;6252666;23;20012;-82
2024/01/23 07:50:21;;;;;;;31.17;5.72;;;5.70;99.90;;;;;;6224976;22;20004;-81
2024/01/23 07:52:47;;;;;;;37.40;5.80;;;5.70;99.90;;;;;;6220357;23;20340;-83
2024/01/23 07:55:13;;;;;;;31.77;4.25;;;5.70;99.90;;;;;;6246981;23;20015;-83
2024/01/23 07:57:39;;;;;;;36.05;5.15;;;5.80;99.90;;;;;;6247263;23;20063;-83
2024/01/23 08:00:06;;;;;;;31.92;4.82;;;5.70;99.90;;;;;;6220085;23;20392;-83
2024/01/23 08:02:32;;;;;;;40.83;5.05;;;5.70;99.90;;;;;;6246789;22;20012;-77
2024/01/23 08:04:59;;;;;;;32.65;6.07;;;5.80;99.90;;;;;;6221253;23;20410;-82
2024/01/23 08:07:25;;;;;;;34.70;6.07;;;5.80;99.90;;;;;;6194921;23;20464;-82
2024/01/23 08:10:02;;;;;;;33.33;6.13;;;5.80;99.90;;;;;;6246679;23;20430;-78
2024/01/23 08:12:27;;;;;;;19.67;3.38;;;5.80;99.90;;;;;;6192211;23;20041;-82
2024/01/23 08:14:53;;;;;;;39.50;6.07;;;5.80;99.90;;;;;;6246627;23;20016;-83
2024/01/23 08:17:19;;;;;;;30.65;4.28;;;5.80;99.90;;;;;;6246160;23;20015;-80
2024/01/23 08:19:45;;;;;;;28.48;4.65;;;5.80;99.90;;;;;;6219751;23;20012;-83
2024/01/23 08:22:11;;;;;;;44.85;6.47;;;5.80;99.90;;;;;;6246217;22;20023;-82
2024/01/23 08:24:37;;;;;;;41.92;5.07;;;5.80;99.90;;;;;;6247549;23;20008;-83
2024/01/23 08:27:04;;;;;;;28.38;4.30;;;5.80;99.90;;;;;;6246245;23;20334;-82
2024/01/23 08:29:30;;;;;;;30.05;5.57;;;5.80;99.90;;;;;;6219052;23;20012;-82
2024/01/23 08:31:55;;;;;;;36.70;5.38;;;5.90;99.90;;;;;;6246246;22;20099;-83
2024/01/23 08:34:22;;;;;;;27.38;4.75;;;5.90;99.90;;;;;;6246307;23;20019;-82
2024/01/23 08:36:48;;;;;;;30.67;4.43;;;5.90;99.90;;;;;;6246814;23;20011;-82
2024/01/23 08:39:15;;;;;;;31.45;4.72;;;6.00;99.90;;;;;;6219262;23;20430;-82
2024/01/23 08:41:41;;;;;;;24.50;3.75;;;6.00;99.90;;;;;;6219978;23;20022;-84
2024/01/23 08:44:06;;;;;;;31.73;4.10;;;6.00;99.90;;;;;;6219166;23;20400;-81
2024/01/23 08:46:32;;;;;;;37.17;5.47;;;6.10;99.90;;;;;;6219330;23;20016;-82
2024/01/23 08:48:58;;;;;;;34.72;5.78;;;6.10;99.90;;;;;;6219749;23;20019;-80
2024/01/23 08:51:24;;;;;;;31.33;5.05;;;6.10;99.90;;;;;;6246574;22;20013;-81
2024/01/23 08:53:51;;;;;;;32.95;4.13;;;6.20;99.90;;;;;;6222292;23;20012;-81
2024/01/23 08:56:21;;;;;;;43.05;5.13;;;6.20;99.90;;;;;;6250678;23;20047;-81
2024/01/23 08:58:47;;;;;;;36.17;5.30;;;6.30;99.90;;;;;;6259946;23;20016;-79
2024/01/23 09:01:13;;;;;;;28.10;4.65;;;6.50;99.90;;;;;;6253872;22;20020;-77
2024/01/23 09:03:39;;;;;;;38.28;5.25;;;6.70;99.90;;;;;;6283956;22;20008;-82
2024/01/23 09:06:05;;;;;;;32.03;4.82;;;7.00;99.90;;;;;;6278620;22;20069;-84
2024/01/23 09:08:31;;;;;;;34.10;5.07;;;7.30;99.90;;;;;;6278126;22;20099;-84
2024/01/23 09:10:57;;;;;;;38.25;5.05;;;7.60;99.90;;;;;;6275559;22;20043;-81
2024/01/23 09:13:23;;;;;;;26.45;3.45;;;7.70;99.90;;;;;;6277439;22;20035;-80
2024/01/23 09:15:48;;;;;;;34.08;5.55;;;7.90;99.90;;;;;;6277748;22;20022;-83
2024/01/23 09:18:14;;;;;;;30.55;4.38;;;8.10;99.90;;;;;;6277567;22;20008;-81
2024/01/23 09:20:40;;;;;;;36.60;5.97;;;8.20;99.90;;;;;;6277094;22;20023;-81
2024/01/23 09:23:06;;;;;;;38.13;5.95;;;8.20;99.90;;;;;;6278839;22;20012;-81
2024/01/23 09:25:31;;;;;;;30.25;4.72;;;8.00;99.90;;;;;;6277114;22;20437;-81
2024/01/23 09:27:57;;;;;;;39.20;4.88;;;7.60;99.90;;;;;;6277303;22;20014;-83
2024/01/23 09:30:23;;;;;;;26.70;4.68;;;7.50;99.90;;;;;;6277630;22;20065;-82
2024/01/23 09:32:49;;;;;;;37.33;5.18;;;7.40;99.90;;;;;;6278641;22;20019;-83
2024/01/23 09:35:19;;;;;;;33.33;6.20;;;7.30;99.90;;;;;;6278971;22;20008;-82
2024/01/23 09:37:45;;;;;;;32.80;5.18;;;7.30;99.90;;;;;;6279269;22;20011;-82
2024/01/23 09:40:11;;;;;;;28.20;4.70;;;7.40;99.90;;;;;;6277037;22;20519;-81
2024/01/23 09:42:40;;;;;;;33.30;5.10;;;7.40;99.90;;;;;;6278372;22;20053;-83
2024/01/23 09:45:18;;;;;;;30.58;5.40;;;7.40;99.90;;;;;;6276743;22;20016;-82
2024/01/23 09:47:49;;;;;;;35.25;4.75;;;7.50;99.90;;;;;;6276672;22;20066;-83
2024/01/23 09:50:17;;;;;;;32.15;4.93;;;7.50;99.90;;;;;;6278747;22;20007;-83
2024/01/23 09:52:45;;;;;;;36.08;5.72;;;7.50;99.90;;;;;;6276792;22;20019;-81
2024/01/23 09:55:12;;;;;;;38.20;6.47;;;7.90;99.90;;;;;;6276787;22;20011;-81
2024/01/23 09:57:39;;;;;;;41.75;4.93;;;8.20;99.90;;;;;;6279073;22;20007;-82
2024/01/23 10:00:12;;;;;;;26.83;4.68;;;8.40;99.90;;;;;;6279151;22;20015;-81
2024/01/23 10:02:42;;;;;;;34.25;4.40;;;8.50;99.90;;;;;;6277451;22;20016;-81
2024/01/23 10:05:14;;;;;;;40.67;5.38;;;8.70;99.90;;;;;;6277656;22;20350;-80
2024/01/23 10:07:40;;;;;;;28.92;4.70;;;8.60;99.90;;;;;;6277088;22;20073;-83
2024/01/23 10:10:15;;;;;;;25.25;3.80;;;8.90;99.90;;;;;;6276876;22;20007;-81
2024/01/23 10:12:48;;;;;;;34.05;5.43;;;8.90;99.90;;;;;;6278523;22;20443;-82
2024/01/23 10:15:18;;;;;;;28.58;3.90;;;8.70;99.90;;;;;;6277829;22;20019;-83
2024/01/23 10:17:45;;;;;;;32.10;5.00;;;8.60;99.90;;;;;;6279210;22;20085;-80
2024/01/23 10:20:11;;;;;;;27.23;4.97;;;8.50;99.90;;;;;;6278715;22;20035;-82
2024/01/23 10:22:38;;;;;;;32.67;4.68;;;8.30;99.90;;;;;;6278726;22;20384;-82
2024/01/23 10:25:15;;;;;;;32.83;4.32;;;8.20;99.90;;;;;;6278730;22;20020;-82
2024/01/23 10:27:40;;;;;;;40.60;5.28;;;8.20;99.90;;;;;;6276662;22;20058;-82
2024/01/23 10:30:08;;;;;;;28.33;5.55;;;8.30;99.90;;;;;;6276658;22;20380;-82
2024/01/23 10:32:37;;;;;;;26.95;4.13;;;8.20;99.90;;;;;;6278263;22;20079;-82
2024/01/23 10:35:03;;;;;;;40.65;5.75;;;8.30;99.90;;;;;;6278126;22;20008;-81
2024/01/23 10:37:29;;;;;;;36.33;5.85;;;8.30;99.90;;;;;;6276451;22;20043;-81
2024/01/23 10:39:56;;;;;;;37.97;4.80;;;8.30;99.90;;;;;;6277187;22;20008;-81
2024/01/23 10:42:22;;;;;;;26.52;4.38;;;8.30;99.90;;;;;;6278143;22;20008;-81
2024/01/23 10:44:49;;;;;;;31.70;4.85;;;8.20;99.90;;;;;;6278193;22;20007;-81
2024/01/23 10:47:15;;;;;;;29.50;4.90;;;8.20;99.90;;;;;;6276498;22;20094;-82
2024/01/23 10:49:45;;;;;;;39.53;3.95;;;8.20;99.90;;;;;;6278412;22;20079;-82
2024/01/23 10:52:19;;;;;;;44.67;5.13;;;8.30;99.90;;;;;;6278257;22;20138;-82
2024/01/23 10:54:46;;;;;;;23.53;4.27;;;8.30;99.90;;;;;;6278084;22;20083;-83
2024/01/23 10:57:22;;;;;;;29.63;4.30;;;8.30;99.90;;;;;;6278285;22;20296;-83
2024/01/23 10:59:48;;;;;;;33.55;4.70;;;8.30;99.90;;;;;;6276427;22;20023;-81
2024/01/23 11:02:30;;;;;;;29.63;5.82;;;8.40;99.90;;;;;;6276369;22;20057;-82
2024/01/23 11:04:58;;;;;;;30.20;5.47;;;8.40;99.90;;;;;;6276472;22;20495;-81
2024/01/23 11:07:32;;;;;;;31.17;5.20;;;8.40;99.90;;;;;;6276172;22;20026;-82
2024/01/23 11:10:26;;;;;;;20.80;3.85;;;8.50;99.90;;;;;;6276506;22;20018;-82
2024/01/23 11:13:11;;;;;;;28.65;5.38;;;8.50;99.90;;;;;;6278128;22;20018;-81
2024/01/23 11:15:37;;;;;;;30.13;4.95;;;8.50;99.90;;;;;;6276413;22;20153;-82
2024/01/23 11:18:26;;;;;;;32.20;5.82;;;8.50;99.90;;;;;;6278065;22;20016;-81
2024/01/23 11:21:04;;;;;;;27.75;4.63;;;8.40;99.90;;;;;;6250751;22;20309;-82
2024/01/23 11:23:34;;;;;;;29.50;4.40;;;8.40;99.90;;;;;;6276195;22;20039;-81
2024/01/23 11:26:35;;;;;;;34.95;5.10;;;8.30;99.90;;;;;;6277523;22;20086;-82
2024/01/23 11:29:05;;;;;;;38.17;5.88;;;8.30;99.90;;;;;;6159611;23;20009;-84
2024/01/23 11:31:39;;;;;;;31.55;5.35;;;8.30;99.90;;;;;;6254952;22;20007;-82
2024/01/23 11:34:23;;;;;;;25.03;5.10;;;8.20;99.90;;;;;;6277768;22;20043;-78
2024/01/23 11:36:48;;;;;;;32.53;5.80;;;8.20;99.90;;;;;;6279880;22;20234;-78
2024/01/23 11:39:15;;;;;;;33.22;5.57;;;8.30;99.90;;;;;;6278221;22;20027;-82
2024/01/23 11:41:47;;;;;;;22.42;4.72;;;8.30;99.90;;;;;;6277009;22;20114;-81
2024/01/23 11:44:13;;;;;;;28.42;3.22;;;8.40;99.90;;;;;;6275637;22;20027;-82
2024/01/23 11:46:40;;;;;;;27.65;4.45;;;8.30;99.90;;;;;;6248130;22;20500;-82
2024/01/23 11:49:07;;;;;;;19.10;3.40;;;8.40;99.90;;;;;;6250150;22;20015;-83
2024/01/23 11:51:37;;;;;;;26.90;3.83;;;8.30;99.90;;;;;;6275425;22;20008;-80
2024/01/23 11:54:09;;;;;;;33.97;5.85;;;8.30;99.90;;;;;;6275459;22;20047;-83
2024/01/23 11:56:36;;;;;;;35.78;4.97;;;8.30;99.90;;;;;;6275375;22;20051;-82
2024/01/23 11:59:02;;;;;;;33.80;5.10;;;8.40;99.90;;;;;;6277763;22;20016;-81
2024/01/23 12:01:30;;;;;;;28.30;5.10;;;8.40;99.90;;;;;;6275453;22;20346;-83
2024/01/23 12:03:56;;;;;;;26.20;4.60;;;8.40;99.90;;;;;;6275393;22;20405;-82
2024/01/23 12:06:23;;;;;;;40.22;5.10;;;8.40;99.90;;;;;;6277248;22;20016;-82
2024/01/23 12:08:50;;;;;;;30.90;5.28;;;8.50;99.90;;;;;;6276129;22;20008;-81
2024/01/23 12:11:17;;;;;;;23.27;3.58;;;8.60;99.90;;;;;;6275375;22;20134;-82
2024/01/23 12:13:44;;;;;;;26.10;3.53;;;8.70;99.90;;;;;;6276110;22;20011;-84
2024/01/23 12:16:10;;;;;;;24.50;4.10;;;8.70;99.90;;;;;;6275873;22;20381;-79
2024/01/23 12:18:36;;;;;;;32.95;5.05;;;8.60;99.90;;;;;;6277591;22;20022;-82
2024/01/23 12:21:04;;;;;;;26.88;4.72;;;8.70;99.90;;;;;;6275665;22;20016;-83
2024/01/23 12:23:30;;;;;;;32.45;5.90;;;8.90;99.90;;;;;;6275467;22;20012;-83
2024/01/23 12:25:56;;;;;;;27.77;4.07;;;8.90;99.90;;;;;;6275475;22;20016;-83
2024/01/23 12:28:23;;;;;;;27.60;4.25;;;8.90;99.90;;;;;;6275989;22;20007;-82
2024/01/23 12:30:49;;;;;;;38.38;6.15;;;9.00;99.90;;;;;;6275371;22;20008;-82
2024/01/23 12:33:18;;;;;;;36.97;5.22;;;9.20;99.90;;;;;;6275911;22;20085;-83
2024/01/23 12:35:44;;;;;;;29.10;3.72;;;9.20;99.90;;;;;;6249984;22;20448;-83
2024/01/23 12:38:14;;;;;;;21.73;4.43;;;9.30;99.90;;;;;;6275436;22;20372;-82
2024/01/23 12:40:40;;;;;;;29.63;4.97;;;9.40;99.90;;;;;;6275026;22;20012;-82
2024/01/23 12:43:08;;;;;;;19.13;3.10;;;9.50;99.90;;;;;;6277132;22;20031;-82
2024/01/23 12:45:34;;;;;;;19.13;3.78;;;9.50;99.90;;;;;;6249759;22;20011;-83
2024/01/23 12:48:00;;;;;;;22.48;4.22;;;9.30;99.90;;;;;;6277548;22;20060;-83
2024/01/23 12:50:27;;;;;;;23.70;2.47;;;9.30;99.90;;;;;;6276847;22;20014;-83
2024/01/23 12:52:57;;;;;;;32.03;4.10;;;9.30;99.90;;;;;;6275507;22;20012;-81
2024/01/23 12:55:24;;;;;;;27.55;4.32;;;9.30;99.90;;;;;;6277376;22;20012;-83
2024/01/23 12:57:51;;;;;;;22.95;4.30;;;9.10;99.90;;;;;;6251831;22;20495;-83
2024/01/23 13:00:19;;;;;;;30.63;5.00;;;9.10;99.90;;;;;;6278204;22;20442;-81
2024/01/23 13:02:45;;;;;;;27.48;3.72;;;9.10;99.90;;;;;;6221624;23;20016;-83
2024/01/23 13:05:12;;;;;;;23.50;3.95;;;9.00;99.90;;;;;;6248722;23;20007;-80
2024/01/23 13:07:41;;;;;;;27.75;4.53;;;9.00;99.90;;;;;;6221790;23;20091;-81
2024/01/23 13:10:10;;;;;;;29.67;3.97;;;8.90;99.90;;;;;;6196189;23;20008;-81
2024/01/23 13:12:37;;;;;;;29.42;3.75;;;8.80;99.90;;;;;;6221515;23;20027;-83
2024/01/23 13:15:04;;;;;;;27.83;3.63;;;8.80;99.90;;;;;;6221256;23;20043;-81
2024/01/23 13:17:30;;;;;;;31.85;4.20;;;8.70;99.90;;;;;;6249017;23;20008;-80
2024/01/23 13:19:56;;;;;;;23.27;4.25;;;8.70;99.90;;;;;;6221172;23;20054;-80
2024/01/23 13:22:22;;;;;;;24.52;3.45;;;8.60;99.90;;;;;;6248443;22;20326;-81
2024/01/23 13:24:48;;;;;;;30.13;4.65;;;8.60;99.90;;;;;;6248277;23;20008;-80
2024/01/23 13:27:14;;;;;;;20.80;4.10;;;8.50;99.90;;;;;;6221001;23;20020;-81
2024/01/23 13:29:39;;;;;;;22.45;3.88;;;8.40;99.90;;;;;;6248004;23;20311;-81
2024/01/23 13:32:07;;;;;;;28.10;4.63;;;8.40;99.90;;;;;;6248159;22;20019;-81
2024/01/23 13:34:34;;;;;;;29.20;4.97;;;8.40;99.90;;;;;;6248191;23;20116;-82
2024/01/23 13:37:01;;;;;;;26.25;4.30;;;8.30;99.90;;;;;;6248175;23;20039;-82
2024/01/23 13:39:27;;;;;;;28.75;4.18;;;8.30;99.90;;;;;;6221299;23;20020;-82
2024/01/23 13:41:53;;;;;;;21.85;4.43;;;8.30;99.90;;;;;;6247876;22;20092;-83
2024/01/23 13:44:19;;;;;;;27.77;3.47;;;8.30;99.90;;;;;;6248289;23;20103;-81
2024/01/23 13:46:44;;;;;;;24.60;4.53;;;8.30;99.90;;;;;;6220960;23;20026;-83
2024/01/23 13:49:10;;;;;;;27.13;5.03;;;8.20;99.90;;;;;;6248595;23;20019;-82
2024/01/23 13:51:39;;;;;;;33.17;5.07;;;8.20;99.90;;;;;;6248563;22;20080;-82
2024/01/23 13:54:05;;;;;;;27.98;4.22;;;8.10;99.90;;;;;;6248072;23;20008;-81
2024/01/23 13:56:34;;;;;;;26.77;3.60;;;8.20;99.90;;;;;;6247772;23;20008;-83
2024/01/23 13:59:05;;;;;;;25.15;4.03;;;8.20;99.90;;;;;;6248275;23;20334;-82
2024/01/23 14:01:32;;;;;;;24.98;3.55;;;8.20;99.90;;;;;;6247902;22;20015;-80
2024/01/23 14:04:00;;;;;;;20.42;3.70;;;8.20;99.90;;;;;;6276638;22;20015;-80
2024/01/23 14:06:26;;;;;;;23.08;3.58;;;8.20;99.90;;;;;;6276585;22;20012;-82
2024/01/23 14:08:52;;;;;;;21.08;3.60;;;8.10;99.90;;;;;;6278053;22;20061;-81
2024/01/23 14:11:18;;;;;;;23.55;3.90;;;8.10;99.90;;;;;;6278834;22;20004;-82
2024/01/23 14:13:44;;;;;;;24.38;3.50;;;8.10;99.90;;;;;;6251305;22;20436;-80
2024/01/23 14:16:10;;;;;;;18.88;3.03;;;8.10;99.90;;;;;;6277195;22;20015;-82
2024/01/23 14:18:36;;;;;;;21.92;4.07;;;8.10;99.90;;;;;;6278324;22;20034;-82
2024/01/23 14:21:04;;;;;;;24.08;3.70;;;8.10;99.90;;;;;;6277899;22;20390;-81
2024/01/23 14:23:30;;;;;;;23.85;3.70;;;8.10;99.90;;;;;;6279955;22;20403;-83
2024/01/23 14:25:55;;;;;;;22.88;3.70;;;8.00;99.90;;;;;;6281903;22;20011;-80
2024/01/23 14:28:21;;;;;;;16.83;2.17;;;8.10;99.90;;;;;;6286851;22;20007;-82
2024/01/23 14:30:49;;;;;;;24.95;4.80;;;8.10;99.90;;;;;;6291002;22;20073;-80
2024/01/23 14:33:15;;;;;;;24.02;3.67;;;8.00;99.90;;;;;;6288439;22;20007;-81
2024/01/23 14:35:45;;;;;;;20.50;2.75;;;8.10;99.90;;;;;;6285211;22;20360;-82
2024/01/23 14:38:12;;;;;;;17.50;3.05;;;8.00;99.90;;;;;;6285298;22;20012;-81
2024/01/23 14:40:38;;;;;;;18.55;3.03;;;8.00;99.90;;;;;;6281426;22;20043;-80
2024/01/23 14:43:04;;;;;;;24.38;4.25;;;8.00;99.90;;;;;;6276941;22;20081;-79
2024/01/23 14:45:32;;;;;;;19.05;3.47;;;8.00;99.90;;;;;;6279006;22;20018;-82
2024/01/23 14:47:57;;;;;;;17.88;3.78;;;8.10;99.90;;;;;;6278059;22;20012;-81
2024/01/23 14:50:23;;;;;;;18.35;3.05;;;8.00;99.90;;;;;;6278336;22;20011;-81
2024/01/23 14:52:49;;;;;;;21.98;3.88;;;8.00;99.90;;;;;;6278204;22;20065;-81
2024/01/23 14:55:14;;;;;;;22.60;4.20;;;8.00;99.90;;;;;;6278325;22;20016;-82
2024/01/23 14:57:43;;;;;;;20.73;3.38;;;8.10;99.90;;;;;;6278056;22;20095;-81
2024/01/23 15:00:10;;;;;;;20.00;4.05;;;8.10;99.90;;;;;;6277518;22;20394;-83
2024/01/23 15:02:39;;;;;;;17.08;3.72;;;8.10;99.90;;;;;;6275842;22;20052;-81
2024/01/23 15:05:07;;;;;;;17.58;4.13;;;8.10;99.90;;;;;;6277876;22;20388;-80
2024/01/23 15:07:34;;;;;;;23.23;3.40;;;8.10;99.90;;;;;;6278062;22;20055;-80
2024/01/23 15:10:01;;;;;;;23.60;4.40;;;8.10;99.90;;;;;;6278061;22;20078;-81
2024/01/23 15:12:27;;;;;;;21.20;3.67;;;8.10;99.90;;;;;;6276195;22;20012;-80
2024/01/23 15:14:53;;;;;;;23.13;3.20;;;8.00;99.90;;;;;;6250492;22;20072;-79
2024/01/23 15:17:19;;;;;;;21.05;3.20;;;8.00;99.90;;;;;;6277449;22;20389;-80
2024/01/23 15:19:46;;;;;;;29.75;4.38;;;8.00;99.90;;;;;;6277162;22;20095;-81
2024/01/23 15:22:12;;;;;;;19.55;4.78;;;8.00;99.90;;;;;;6278346;22;20463;-80
2024/01/23 15:24:37;;;;;;;24.17;3.83;;;7.90;99.90;;;;;;6281848;22;20047;-79
2024/01/23 15:27:03;;;;;;;24.65;4.25;;;7.90;99.90;;;;;;6277175;22;20026;-80
2024/01/23 15:29:29;;;;;;;21.98;3.72;;;7.80;99.90;;;;;;6275835;22;20011;-80
2024/01/23 15:31:55;;;;;;;23.75;4.30;;;7.80;99.90;;;;;;6275284;22;20011;-80
2024/01/23 15:34:21;;;;;;;26.55;5.15;;;7.80;99.90;;;;;;6275575;22;20088;-80
2024/01/23 15:36:48;;;;;;;26.65;5.03;;;7.70;99.90;;;;;;6276469;22;20437;-81
2024/01/23 15:39:16;;;;;;;25.60;5.15;;;7.60;99.90;;;;;;6275426;22;20353;-82
2024/01/23 15:41:41;;;;;;;25.63;5.25;;;7.60;99.90;;;;;;6277800;22;20016;-81
2024/01/23 15:44:08;;;;;;;22.52;4.80;;;7.50;99.90;;;;;;6275722;22;20454;-79
2024/01/23 15:46:34;;;;;;;27.80;5.90;;;7.50;99.90;;;;;;6275861;22;20382;-80
2024/01/23 15:48:59;;;;;;;30.63;6.05;;;7.60;99.90;;;;;;6275203;22;20008;-81
2024/01/23 15:51:25;;;;;;;32.15;7.55;;;7.40;99.90;;;;;;6275690;22;20019;-82
2024/01/23 15:53:52;;;;;;;36.22;8.07;;;7.40;99.90;;;;;;6275732;22;20022;-81
2024/01/23 15:56:17;;;;;;;40.38;8.27;;;7.40;99.90;;;;;;6277186;22;20011;-81
2024/01/23 15:58:43;;;;;;;40.70;7.35;;;7.40;99.90;;;;;;6277389;22;20081;-80
2024/01/23 16:01:09;;;;;;;30.30;7.07;;;7.30;99.90;;;;;;6265569;22;20433;-81
2024/01/23 16:03:36;;;;;;;31.83;6.22;;;7.30;99.90;;;;;;6246353;23;20016;-83
2024/01/23 16:06:02;;;;;;;25.98;5.88;;;7.30;99.90;;;;;;6219379;23;20091;-81
2024/01/23 16:08:28;;;;;;;34.88;6.53;;;7.30;99.90;;;;;;6246183;23;20012;-79
2024/01/23 16:10:53;;;;;;;30.63;5.90;;;7.30;99.90;;;;;;6219190;23;20019;-79
2024/01/23 16:13:19;;;;;;;30.65;5.07;;;7.30;99.90;;;;;;6246593;23;20012;-80
2024/01/23 16:15:45;;;;;;;26.60;5.63;;;7.30;99.90;;;;;;6246441;23;20050;-80
2024/01/23 16:18:11;;;;;;;29.08;5.63;;;7.30;99.90;;;;;;6247332;23;20012;-82
2024/01/23 16:20:36;;;;;;;27.55;5.32;;;7.30;99.90;;;;;;6246707;22;20019;-80
2024/01/23 16:23:02;;;;;;;31.05;6.57;;;7.30;99.90;;;;;;6246476;23;20081;-81
2024/01/23 16:25:30;;;;;;;27.63;5.43;;;7.30;99.90;;;;;;6219062;23;20063;-80
2024/01/23 16:27:56;;;;;;;25.75;5.13;;;7.40;99.90;;;;;;6245981;23;20023;-82
2024/01/23 16:30:21;;;;;;;33.38;5.82;;;7.40;99.90;;;;;;6219011;22;20016;-81
2024/01/23 16:32:51;;;;;;;32.00;6.15;;;7.40;99.90;;;;;;6245728;23;20047;-81
2024/01/23 16:35:18;;;;;;;24.73;5.10;;;7.40;99.90;;;;;;6219110;23;20023;-81
2024/01/23 16:37:44;;;;;;;28.55;5.63;;;7.40;99.90;;;;;;6246289;23;20354;-80
2024/01/23 16:40:12;;;;;;;37.17;6.55;;;7.40;99.90;;;;;;6219654;23;20016;-80
2024/01/23 16:42:38;;;;;;;32.65;6.20;;;7.40;99.90;;;;;;6246447;22;20402;-79
2024/01/23 16:45:05;;;;;;;29.02;5.80;;;7.40;99.90;;;;;;6246483;23;20016;-80
2024/01/23 16:47:31;;;;;;;37.40;6.63;;;7.40;99.90;;;;;;6246004;23;20020;-78